Anchorage, AK (99509)

8:26 AM AKDT on July 28, 2015 (GMT -0800)
KTUU-TV | | Change Station
CLOSE
Current Station
Personal Weather Station
Location: Anchorage, AK
Elevation: 115 ft
Nearby Weather Stations

Elev 115 ft 61.18 °N, 149.87 °W | Updated 18 seconds ago

Rain
Rain
56.0 °F
Feels Like 56.0 °F
N
0.0
Wind Variable Wind from East
Gusts 8.0 mph

Today
High -- | Low -- °F
--% Chance of Precip.
Yesterday
High -- | Low -- °F
Precip. -- in
5:21 AM 10:48 PM
Waxing Gibbous, 90% visible
Pressure 29.78 in
Visibility 8.0 miles
Clouds Few 3500 ft
Overcast 5000 ft
Dew Point 56 °F
Humidity 100%
Rainfall 0.22 in
Snow Depth Not available.
UV 0 out of 12
Pollen Not available.
Air Quality Not available.
Flu Activity Not available.
METAR PAMR 281553Z 06005KT 8SM RA FEW035 OVC050 14/12 A2978 RMK AO2 SLP084 P0005 T01440122

More Conditions Fewer Conditions

Pressure 29.78 in
Visibility 8.0 miles
Clouds Few 3500 ft
Overcast 5000 ft
Dew Point 56 °F
Humidity 100%
Rainfall 0.22 in
Snow Depth Not available.
UV 0 out of 12
Pollen Not available.
Air Quality Not available.
Flu Activity Not available.
METAR PAMR 281553Z 06005KT 8SM RA FEW035 OVC050 14/12 A2978 RMK AO2 SLP084 P0005 T01440122

More Conditions Fewer Conditions

10-Day Weather Forecast

×

Almanac

Astronomy

Jul. 28, 2015 Rise Set
Actual Time
Civil Twilight
Nautical Twilight
Astronomical Twilight
Moon
Length of Visible Light
Length of Day
Tomorrow will be .
, % of the Moon is Illuminated

Today's Extremes

State Highs State Lows

Community

WunderPhotos

Upload Photos

1,841,877 photos uploaded!

WunderBlogs® & News

Nearby

Air Quality

  Air Quality AQ Index Pollutant
Not available.

Snow Depth

Station Depth Elevation

Earthquake Activity

City Distance Mag. Time & Date
Minimum magnitude displayed is 2.5.

Coastal Water Temperatures

Place Temperature

Stations

Nearby Weather Stations

Station Location Temp. Windchill Dew Point Humidity Wind Precip. Elev Updated Type